Portada
METAR-TAF:

METAR-TAF

Aeropuertos :

Aeropuerto Internacional de Zvartnots

Ereván, Armenia

latitud: 40-08-50N, longitud: 044-23-45E, altitud: 865 m

Observación

El informe se hizo hace 23 minutos, a las 22:00 UTC
Viento 5 kt del sureste
Temperatura 4°C
Humedad 56%
Presión 1021 hPa
Visibilidad 10 km o más

METAR: UDYZ 082200Z 14005KT 9999 NSC 04/M04 Q1021 R09/010070 NOSIG

Hora: 02:23 (22:23 UTC)

Pronóstico

El informe se hizo hace 5 horas y 17 minutos, a las 17:06 UTC
Pronóstico válido del 08 a las 18 UTC al 09 a las 18 UTC
Viento 6 kt del noreste
Visibilidad 10 km o más
sin nubes por debajo de 1500 m y sin presencia de cumulonimbus.

TAF: UDYZ 081706Z 0818/0918 04006KT CAVOK

Observaciones y pronósticos meteorológicos de más de 4000 aeropuertos (mensajes METAR y TAF).

Los puntos amarillos y rojos representan las estaciones disponibles.

Ponga el ratón en el punto deseado para ver el nombre de la estación.

Haga clic para ver las observaciones y los pronósticos meteorológicos.

Para cambiar el mapa : haga clic en los botones verdes con una cruz de color negro para hacer un zoom, en el botón verde con un guión para alejar o en las flechas verdes para mapas adyacentes.


METAR-TAF: